Time;durP1;ratioP1;P1;durP2;ratioP2;P2;SDS_P1;SDS_P2;PMS_P1;PMS_P2;Temp;Humidity;BMP_temperature;BMP_pressure;BME280_temperature;BME280_humidity;BME280_pressure;Samples;Min_cycle;Max_cycle;Signal;HPM_P1;HPM_P2
2022/11/30 00:01:44;;;;;;;7.50;4.90;;;;;;;0.36;81.61;100056.77;101973;1304;61390;-24
2022/11/30 00:04:12;;;;;;;6.50;3.10;;;;;;;0.25;81.83;100055.65;102252;1300;61962;-24
2022/11/30 00:06:43;;;;;;;6.10;3.60;;;;;;;0.80;81.98;100057.24;102365;1294;75264;-24
2022/11/30 00:09:10;;;;;;;6.80;4.70;;;;;;;1.37;80.26;100056.82;101985;1302;75806;-24
2022/11/30 00:11:38;;;;;;;7.80;4.90;;;;;;;1.47;79.46;100055.17;102339;1300;74235;-25
2022/11/30 00:14:07;;;;;;;8.20;4.70;;;;;;;1.27;79.22;100056.55;102289;1302;61845;-25
2022/11/30 00:16:34;;;;;;;10.50;5.90;;;;;;;1.01;79.75;100056.55;102389;1302;61795;-25
2022/11/30 00:19:06;;;;;;;9.50;5.60;;;;;;;0.75;80.27;100058.23;102322;1302;75478;-24
2022/11/30 00:21:34;;;;;;;15.10;7.90;;;;;;;0.52;81.12;100058.45;102123;1294;75776;-24
2022/11/30 00:24:04;;;;;;;11.70;6.30;;;;;;;0.33;81.69;100059.08;102281;1294;74289;-25
2022/11/30 00:26:33;;;;;;;6.70;4.60;;;;;;;0.32;82.00;100059.59;102020;1301;61306;-25
2022/11/30 00:29:01;;;;;;;8.20;5.60;;;;;;;1.02;81.74;100062.52;102050;1294;61893;-25
2022/11/30 00:31:30;;;;;;;6.30;4.70;;;;;;;1.48;79.77;100060.45;102237;1295;75469;-24
2022/11/30 00:33:58;;;;;;;9.60;6.40;;;;;;;1.52;79.43;100057.45;102327;1302;75808;-25
2022/11/30 00:36:25;;;;;;;6.90;5.30;;;;;;;1.35;79.75;100055.52;102306;1294;74268;-25
2022/11/30 00:38:54;;;;;;;7.50;5.40;;;;;;;1.04;79.67;100054.42;102166;1300;61191;-24
2022/11/30 00:41:22;;;;;;;8.00;5.40;;;;;;;0.74;80.28;100055.86;102206;1294;61908;-24
2022/11/30 00:43:50;;;;;;;13.50;8.30;;;;;;;0.44;81.17;100053.69;102351;1294;74408;-25
2022/11/30 00:46:17;;;;;;;11.50;5.50;;;;;;;0.30;81.58;100052.79;102381;1301;75693;-25
2022/11/30 00:48:46;;;;;;;4.70;3.20;;;;;;;0.16;81.87;100051.08;102343;1294;72111;-24
2022/11/30 00:51:14;;;;;;;7.00;4.40;;;;;;;0.65;82.36;100055.04;102276;1302;61043;-25
2022/11/30 00:53:42;;;;;;;10.60;6.30;;;;;;;1.31;80.69;100052.52;102266;1298;62086;-25
2022/11/30 00:56:09;;;;;;;15.70;7.60;;;;;;;1.42;79.70;100052.06;102279;1299;75391;-25
2022/11/30 00:58:37;;;;;;;10.20;6.60;;;;;;;1.24;79.52;100049.64;102387;1302;76090;-25
2022/11/30 01:01:06;;;;;;;10.70;7.40;;;;;;;0.96;79.85;100045.74;102371;1302;74282;-25
2022/11/30 01:03:33;;;;;;;12.20;7.60;;;;;;;0.41;81.21;100042.30;102062;1305;61208;-25
2022/11/30 01:06:03;;;;;;;11.90;7.70;;;;;;;0.18;82.83;100038.56;102356;1300;61698;-24
2022/11/30 01:08:31;;;;;;;10.40;6.60;;;;;;;-0.01;83.57;100035.41;102029;1293;75293;-25
2022/11/30 01:11:20;;;;;;;6.60;4.20;;;;;;;-0.05;83.88;100036.70;102237;1294;75718;-25
2022/11/30 01:13:48;;;;;;;6.80;4.20;;;;;;;0.61;83.20;100034.83;101926;1302;74264;-25
2022/11/30 01:16:26;;;;;;;7.00;4.90;;;;;;;1.11;80.78;100034.95;102267;1294;61756;-25
2022/11/30 01:18:53;;;;;;;9.10;5.40;;;;;;;1.11;79.89;100030.64;102219;1295;61181;-25
2022/11/30 01:21:23;;;;;;;13.20;6.70;;;;;;;0.85;79.89;100029.10;102175;1301;75420;-24
2022/11/30 01:23:51;;;;;;;12.70;6.50;;;;;;;0.46;81.21;100030.23;102026;1295;74831;-24
2022/11/30 01:26:19;;;;;;;10.60;6.00;;;;;;;0.22;82.20;100026.00;102195;1302;73433;-24
2022/11/30 01:28:51;;;;;;;8.30;4.90;;;;;;;0.15;82.42;100022.73;102217;1295;61253;-26
2022/11/30 01:31:20;;;;;;;6.40;3.80;;;;;;;0.06;83.17;100022.42;102160;1302;61220;-26
2022/11/30 01:33:52;;;;;;;7.20;5.20;;;;;;;0.53;83.00;100026.63;102164;1294;75413;-26
2022/11/30 01:36:24;;;;;;;10.70;5.10;;;;;;;1.09;80.96;100025.75;102001;1303;75673;-25
2022/11/30 01:38:54;;;;;;;11.10;6.80;;;;;;;1.01;80.03;100024.09;101941;1305;73535;-26
2022/11/30 01:41:28;;;;;;;10.40;6.50;;;;;;;0.91;80.59;100025.68;102037;1303;61917;-26
2022/11/30 01:44:16;;;;;;;11.00;6.90;;;;;;;0.67;80.70;100026.64;101943;1302;61062;-25
2022/11/30 01:46:53;;;;;;;8.10;5.10;;;;;;;0.31;82.04;100029.55;101806;1295;75636;-26
2022/11/30 01:49:27;;;;;;;9.00;5.60;;;;;;;0.13;82.82;100023.98;102186;1294;74602;-25
2022/11/30 01:52:01;;;;;;;5.50;3.40;;;;;;;-0.03;83.41;100023.99;102166;1302;74223;-25
2022/11/30 01:54:36;;;;;;;8.10;4.80;;;;;;;0.47;83.06;100021.65;102153;1294;61105;-25
2022/11/30 01:57:29;;;;;;;5.20;3.60;;;;;;;0.99;81.10;100019.84;102011;1302;61136;-26
2022/11/30 01:59:58;;;;;;;;;;;;;;;1.03;79.64;100015.12;102219;1296;75227;-25
2022/11/30 02:02:31;;;;;;;4.50;3.80;;;;;;;0.80;80.37;100017.28;102242;1302;75734;-26
2022/11/30 02:04:59;;;;;;;10.90;5.10;;;;;;;0.59;80.69;100014.87;101986;1297;74237;-26
2022/11/30 02:07:26;;;;;;;8.00;5.20;;;;;;;0.37;81.20;100016.09;101919;1298;61206;-25
2022/11/30 02:09:55;;;;;;;7.20;5.10;;;;;;;0.17;82.04;100013.65;102375;1302;61877;-25
2022/11/30 02:13:07;;;;;;;5.20;2.80;;;;;;;0.00;82.59;100015.06;102348;1302;75448;-25
2022/11/30 02:15:51;;;;;;;6.30;3.80;;;;;;;0.69;82.04;100021.64;102131;1302;75870;-25
2022/11/30 02:18:39;;;;;;;5.10;3.60;;;;;;;1.10;80.57;100025.38;102182;1294;74117;-25
2022/11/30 02:21:25;;;;;;;6.90;4.70;;;;;;;1.02;80.20;100020.97;102074;1294;61947;-25
2022/11/30 02:24:17;;;;;;;8.60;5.60;;;;;;;0.59;80.83;100021.88;102143;1294;61144;-25
2022/11/30 02:26:48;;;;;;;8.00;4.60;;;;;;;0.33;81.52;100019.09;102058;1294;75482;-25
2022/11/30 02:29:26;;;;;;;8.60;3.90;;;;;;;0.07;82.54;100015.06;102275;1295;75668;-25
2022/11/30 02:32:02;;;;;;;8.30;4.20;;;;;;;0.18;82.76;100017.20;102176;1302;74540;-26
2022/11/30 02:34:30;;;;;;;8.40;4.20;;;;;;;0.81;82.06;100023.55;102116;1300;61492;-25
2022/11/30 02:36:58;;;;;;;7.70;3.80;;;;;;;0.84;80.85;100018.70;101988;1294;61845;-26
2022/11/30 02:39:26;;;;;;;8.70;6.30;;;;;;;0.55;80.91;100023.00;101922;1297;75434;-26
2022/11/30 02:41:53;;;;;;;9.00;5.60;;;;;;;0.43;81.52;100022.27;102217;1302;75620;-25
2022/11/30 02:44:21;;;;;;;9.80;5.80;;;;;;;0.19;81.60;100018.73;102359;1300;74515;-25
2022/11/30 02:47:10;;;;;;;8.80;5.20;;;;;;;-0.03;82.56;100018.54;102190;1300;61124;-26
2022/11/30 02:49:47;;;;;;;6.90;3.60;;;;;;;-0.10;83.06;100020.06;101932;1302;61204;-26
2022/11/30 02:52:15;;;;;;;7.60;4.70;;;;;;;0.55;82.35;100019.08;101946;1303;75387;-26
2022/11/30 02:54:43;;;;;;;6.20;4.10;;;;;;;1.07;80.84;100024.11;101901;1298;75643;-26
2022/11/30 02:57:11;;;;;;;6.50;4.70;;;;;;;1.03;79.70;100027.45;102243;1302;74175;-26
2022/11/30 02:59:38;;;;;;;9.40;5.00;;;;;;;0.84;79.94;100028.61;102268;1295;61019;-25
2022/11/30 03:02:06;;;;;;;7.60;4.70;;;;;;;0.51;80.56;100031.31;102012;1295;61715;-25
2022/11/30 03:04:34;;;;;;;6.90;4.30;;;;;;;0.29;81.30;100031.48;102211;1300;75322;-25
2022/11/30 03:07:01;;;;;;;8.10;4.60;;;;;;;0.05;81.99;100028.95;102249;1298;74821;-26
2022/11/30 03:09:29;;;;;;;10.20;5.70;;;;;;;0.15;82.54;100031.45;102347;1285;73791;-25
2022/11/30 03:11:57;;;;;;;7.60;5.40;;;;;;;0.72;81.71;100031.64;102227;1300;61917;-26
2022/11/30 03:14:24;;;;;;;13.10;6.00;;;;;;;0.86;80.71;100032.66;102209;1295;61837;-26
2022/11/30 03:16:52;;;;;;;8.80;6.40;;;;;;;0.71;80.40;100034.24;102172;1302;75589;-26
2022/11/30 03:19:19;;;;;;;9.00;5.60;;;;;;;0.50;80.85;100037.15;102233;1295;74592;-25
2022/11/30 03:21:47;;;;;;;8.10;5.10;;;;;;;0.13;82.32;100036.27;102322;1294;74378;-25
2022/11/30 03:24:14;;;;;;;9.10;4.70;;;;;;;-0.02;82.66;100039.86;102299;1300;61039;-25
2022/11/30 03:26:42;;;;;;;6.40;3.40;;;;;;;-0.15;82.84;100041.33;102281;1302;61921;-25
2022/11/30 03:29:10;;;;;;;6.70;4.20;;;;;;;0.23;83.03;100040.84;102315;1294;75424;-25
2022/11/30 03:31:37;;;;;;;8.30;5.30;;;;;;;0.83;81.20;100041.47;102242;1302;75674;-26
2022/11/30 03:34:05;;;;;;;7.10;4.10;;;;;;;0.84;80.27;100041.45;102220;1300;74251;-27
2022/11/30 03:36:34;;;;;;;9.80;5.60;;;;;;;0.72;80.34;100039.16;101999;1301;61622;-26
2022/11/30 03:39:02;;;;;;;9.10;5.80;;;;;;;0.51;81.10;100039.52;102324;1301;61971;-26
2022/11/30 03:41:29;;;;;;;11.40;6.50;;;;;;;0.28;81.60;100041.07;102280;1300;75427;-26
2022/11/30 03:43:57;;;;;;;11.40;6.70;;;;;;;-0.02;82.87;100034.57;102354;1300;75685;-25
2022/11/30 03:46:26;;;;;;;6.60;3.90;;;;;;;-0.21;83.69;100039.59;101995;1302;74380;-25
2022/11/30 03:48:53;;;;;;;6.80;4.40;;;;;;;0.29;83.02;100037.45;102327;1297;61326;-26
2022/11/30 03:51:21;;;;;;;8.40;5.90;;;;;;;0.93;81.39;100040.34;102283;1295;61842;-26
2022/11/30 03:53:49;;;;;;;7.80;4.70;;;;;;;1.02;80.38;100038.09;102194;1301;75338;-25
2022/11/30 03:56:17;;;;;;;6.80;4.20;;;;;;;0.82;79.95;100032.43;102288;1302;75892;-26
2022/11/30 03:58:44;;;;;;;9.40;5.60;;;;;;;0.48;80.70;100034.27;102256;1294;72807;-26
2022/11/30 04:01:14;;;;;;;8.50;5.10;;;;;;;0.21;81.50;100034.05;102287;1293;61040;-26
2022/11/30 04:03:41;;;;;;;4.30;3.40;;;;;;;-0.15;83.12;100035.19;102033;1305;61810;-26
2022/11/30 04:06:10;;;;;;;5.60;4.30;;;;;;;-0.18;83.56;100033.20;101990;1302;74612;-25
2022/11/30 04:08:38;;;;;;;6.60;4.60;;;;;;;0.38;82.51;100033.83;101979;1302;75596;-26
2022/11/30 04:11:06;;;;;;;7.10;5.00;;;;;;;0.67;80.94;100035.19;102124;1302;73050;-25
2022/11/30 04:13:34;;;;;;;12.40;7.20;;;;;;;0.75;80.80;100036.19;102218;1302;61619;-26
2022/11/30 04:16:02;;;;;;;15.00;7.90;;;;;;;0.58;80.69;100039.34;102073;1302;62100;-26
2022/11/30 04:18:31;;;;;;;18.80;11.20;;;;;;;0.34;81.29;100038.20;102192;1302;74264;-26
2022/11/30 04:20:59;;;;;;;18.00;10.40;;;;;;;0.05;82.40;100037.66;102087;1302;75817;-27
2022/11/30 04:23:34;;;;;;;25.20;14.10;;;;;;;-0.15;82.81;100039.96;102203;1302;72317;-26
2022/11/30 04:26:04;;;;;;;10.10;6.20;;;;;;;-0.33;83.80;100040.50;102178;1300;62748;-26
2022/11/30 04:28:31;;;;;;;9.40;6.10;;;;;;;0.19;83.48;100039.05;102160;1294;62539;-25
2022/11/30 04:30:59;;;;;;;9.50;5.90;;;;;;;0.63;81.61;100045.55;102310;1298;75600;-26
2022/11/30 04:33:27;;;;;;;9.00;5.80;;;;;;;0.42;81.45;100043.30;102148;1295;74000;-26
2022/11/30 04:35:57;;;;;;;12.30;7.40;;;;;;;0.21;82.37;100041.92;102327;1292;74228;-26
2022/11/30 04:38:24;;;;;;;10.70;6.30;;;;;;;0.07;82.34;100039.83;101896;1304;61119;-26
2022/11/30 04:40:52;;;;;;;11.30;8.00;;;;;;;-0.27;83.90;100044.48;102285;1302;61838;-26
2022/11/30 04:43:19;;;;;;;9.50;6.00;;;;;;;-0.31;84.09;100046.95;102321;1300;75521;-26
2022/11/30 04:45:47;;;;;;;8.30;5.20;;;;;;;0.05;83.75;100045.69;102254;1302;75633;-26
2022/11/30 04:48:15;;;;;;;6.20;3.90;;;;;;;0.69;82.40;100042.31;102328;1301;74083;-26
2022/11/30 04:50:43;;;;;;;9.60;5.50;;;;;;;0.79;80.99;100047.38;102160;1302;61810;-24
2022/11/30 04:53:11;;;;;;;6.40;4.40;;;;;;;0.53;80.91;100045.59;101471;1293;1294198;-23
2022/11/30 04:55:39;;;;;;;9.30;5.90;;;;;;;0.32;81.37;100045.59;102370;1294;75229;-24
2022/11/30 04:58:07;;;;;;;13.20;7.20;;;;;;;0.04;82.54;100049.29;102387;1291;75753;-23
2022/11/30 05:00:34;;;;;;;12.10;6.20;;;;;;;-0.19;83.31;100057.95;102405;1294;74427;-26
2022/11/30 05:03:02;;;;;;;12.30;6.10;;;;;;;-0.32;83.85;100058.75;102179;1301;62781;-25
2022/11/30 05:05:30;;;;;;;13.00;6.50;;;;;;;0.01;84.14;100061.65;102405;1291;61851;-25
2022/11/30 05:07:58;;;;;;;13.40;7.70;;;;;;;0.53;82.34;100065.44;102386;1297;75232;-26
2022/11/30 05:10:26;;;;;;;14.20;8.20;;;;;;;0.71;80.99;100064.33;102355;1299;74643;-26
2022/11/30 05:12:55;;;;;;;44.20;20.00;;;;;;;0.38;81.09;100068.52;102207;1299;74311;-26
2022/11/30 05:15:22;;;;;;;33.50;16.10;;;;;;;0.20;81.71;100066.20;102123;1294;61079;-26
2022/11/30 05:17:50;;;;;;;45.90;24.10;;;;;;;-0.09;82.80;100069.22;102357;1292;61226;-25
2022/11/30 05:20:18;;;;;;;32.40;16.00;;;;;;;-0.46;84.90;100074.20;102364;1291;75237;-25
2022/11/30 05:22:45;;;;;;;12.70;5.40;;;;;;;-0.57;85.69;100072.88;102357;1291;74792;-26
2022/11/30 05:25:13;;;;;;;8.10;5.30;;;;;;;0.02;84.60;100075.96;102425;1298;73692;-26
2022/11/30 05:27:41;;;;;;;9.20;5.20;;;;;;;0.55;82.21;100080.61;102376;1289;61887;-25
2022/11/30 05:30:09;;;;;;;21.00;11.20;;;;;;;0.59;80.60;100085.45;102385;1293;61519;-26
2022/11/30 05:32:37;;;;;;;18.00;10.50;;;;;;;0.36;80.65;100084.63;102140;1299;75392;-26
2022/11/30 05:35:05;;;;;;;15.90;9.20;;;;;;;0.19;81.09;100088.92;102344;1297;76035;-26
2022/11/30 05:37:33;;;;;;;15.30;10.20;;;;;;;-0.03;81.80;100093.81;102314;1299;73092;-26
2022/11/30 05:40:00;;;;;;;10.30;6.60;;;;;;;-0.23;82.46;100092.88;102357;1299;60992;-26
2022/11/30 05:42:28;;;;;;;7.30;4.30;;;;;;;-0.31;82.89;100096.62;102383;1299;61785;-26
2022/11/30 05:44:56;;;;;;;7.70;3.50;;;;;;;0.14;82.03;100096.71;102006;1297;75590;-25
2022/11/30 05:47:24;;;;;;;12.50;6.70;;;;;;;0.55;80.80;100098.89;102412;1297;75778;-25
2022/11/30 05:49:52;;;;;;;8.40;5.20;;;;;;;0.69;80.71;100102.98;102403;1291;73872;-26
2022/11/30 05:52:19;;;;;;;9.10;5.00;;;;;;;0.56;80.20;100106.21;102416;1299;61046;-25
2022/11/30 05:54:47;;;;;;;10.40;5.60;;;;;;;0.34;80.42;100111.84;102388;1297;61852;-25
2022/11/30 05:57:15;;;;;;;8.10;5.00;;;;;;;0.04;80.98;100112.27;102415;1290;75913;-25
2022/11/30 05:59:42;;;;;;;8.00;4.90;;;;;;;-0.07;81.67;100114.75;102409;1297;75870;-25
2022/11/30 06:02:10;;;;;;;5.80;4.10;;;;;;;-0.16;81.91;100121.91;102442;1291;74380;-26
2022/11/30 06:04:38;;;;;;;8.10;4.80;;;;;;;0.27;81.76;100118.80;102330;1284;61157;-24
2022/11/30 06:07:10;;;;;;;10.40;6.10;;;;;;;0.74;80.61;100119.64;102410;1292;61876;-24
2022/11/30 06:09:38;;;;;;;8.30;5.00;;;;;;;0.64;79.64;100118.33;102418;1291;75193;-24
2022/11/30 06:12:07;;;;;;;7.30;4.00;;;;;;;0.45;79.84;100127.83;102381;1299;75818;-25
2022/11/30 06:14:36;;;;;;;10.60;5.50;;;;;;;0.31;80.29;100130.35;102165;1291;74092;-25
2022/11/30 06:17:04;;;;;;;11.10;6.70;;;;;;;0.08;80.62;100135.95;102347;1299;61084;-24
2022/11/30 06:19:32;;;;;;;6.80;4.70;;;;;;;-0.07;81.55;100142.06;102412;1297;61849;-24
2022/11/30 06:21:59;;;;;;;8.70;5.80;;;;;;;0.38;81.58;100138.39;102268;1297;73355;-25
2022/11/30 06:24:27;;;;;;;11.00;6.20;;;;;;;0.85;79.85;100139.36;102435;1291;74693;-25
2022/11/30 06:26:54;;;;;;;12.60;7.00;;;;;;;1.00;78.92;100139.70;102442;1299;74333;-24
2022/11/30 06:29:22;;;;;;;10.10;5.80;;;;;;;0.90;79.13;100144.22;102513;1299;61049;-25
2022/11/30 06:31:50;;;;;;;10.60;6.40;;;;;;;0.77;79.75;100141.27;102390;1298;61697;-24
2022/11/30 06:34:18;;;;;;;11.60;5.80;;;;;;;0.61;79.87;100144.05;102320;1294;75509;-25
2022/11/30 06:36:46;;;;;;;10.20;6.20;;;;;;;0.34;79.93;100140.37;102426;1291;75634;-24
2022/11/30 06:39:16;;;;;;;10.50;6.80;;;;;;;0.04;80.88;100138.75;102244;1297;75054;-24
2022/11/30 06:42:04;;;;;;;7.90;4.30;;;;;;;-0.24;82.37;100140.00;102370;1289;62751;-24
2022/11/30 06:44:31;;;;;;;11.00;6.30;;;;;;;0.34;82.32;100137.78;102450;1298;61698;-24
2022/11/30 06:46:59;;;;;;;6.50;4.50;;;;;;;0.97;79.63;100138.57;102461;1299;75472;-24
2022/11/30 06:49:27;;;;;;;10.50;5.40;;;;;;;1.23;79.24;100142.05;102457;1291;75593;-24
2022/11/30 06:51:55;;;;;;;12.60;7.70;;;;;;;1.10;78.58;100147.34;102367;1299;73445;-24
2022/11/30 06:54:22;;;;;;;13.10;8.60;;;;;;;0.68;78.64;100146.45;102456;1289;61373;-24
2022/11/30 06:56:50;;;;;;;13.30;8.30;;;;;;;0.18;80.61;100148.21;102441;1291;61857;-26
2022/11/30 06:59:17;;;;;;;12.50;8.10;;;;;;;0.20;80.95;100144.77;102285;1294;75467;-24
2022/11/30 07:01:45;;;;;;;8.90;5.90;;;;;;;0.12;80.77;100141.68;102456;1299;75793;-24
2022/11/30 07:04:13;;;;;;;7.90;5.10;;;;;;;0.06;80.90;100146.73;102397;1299;74093;-25
2022/11/30 07:06:42;;;;;;;11.50;6.30;;;;;;;0.73;80.59;100146.48;102435;1299;61046;-23
2022/11/30 07:09:12;;;;;;;10.70;6.00;;;;;;;1.34;79.42;100146.56;102371;1294;61170;-25
2022/11/30 07:11:40;;;;;;;9.60;6.20;;;;;;;1.39;78.02;100149.52;102233;1294;74670;-25
2022/11/30 07:14:08;;;;;;;10.00;5.60;;;;;;;1.09;77.68;100152.14;102433;1289;75821;-25
2022/11/30 07:16:37;;;;;;;12.50;8.10;;;;;;;0.84;78.19;100149.64;102487;1299;74356;-25
2022/11/30 07:19:05;;;;;;;10.70;7.10;;;;;;;0.63;78.91;100146.37;102330;1298;61162;-26
2022/11/30 07:21:32;;;;;;;10.80;7.10;;;;;;;0.37;79.79;100145.60;102432;1299;61978;-25
2022/11/30 07:26:47;;;;;;;13.50;7.80;;;;;;;0.83;79.79;100139.77;102377;1299;75597;-24
2022/11/30 07:29:14;;;;;;;7.40;5.50;;;;;;;1.31;77.79;100141.52;102342;1299;74335;-25
2022/11/30 07:31:42;;;;;;;11.40;7.20;;;;;;;1.29;76.76;100140.70;101993;1298;62019;-36
2022/11/30 07:34:12;;;;;;;11.90;8.10;;;;;;;1.26;77.43;100143.17;102375;1299;61192;-25
2022/11/30 07:36:40;;;;;;;13.80;8.30;;;;;;;0.96;77.65;100145.96;102433;1299;75745;-24
2022/11/30 07:39:08;;;;;;;14.30;9.90;;;;;;;0.67;77.98;100144.06;102419;1289;74807;-23
2022/11/30 07:41:36;;;;;;;15.00;8.80;;;;;;;0.50;79.40;100147.52;102419;1281;74180;-24
2022/11/30 07:44:06;;;;;;;41.20;20.50;;;;;;;0.09;80.89;100147.88;102278;1295;61167;-24
2022/11/30 07:46:36;;;;;;;10.20;5.50;;;;;;;-0.06;81.81;100148.53;102034;1298;62047;-24
2022/11/30 07:49:05;;;;;;;15.70;7.30;;;;;;;0.68;81.27;100145.23;102294;1300;75505;-24
2022/11/30 07:51:36;;;;;;;24.50;11.50;;;;;;;1.28;77.98;100148.42;102331;1292;75072;-24
2022/11/30 07:54:06;;;;;;;16.40;9.30;;;;;;;1.31;76.82;100142.35;102268;1299;74153;-24
2022/11/30 07:56:35;;;;;;;16.40;8.00;;;;;;;1.07;77.33;100143.98;102241;1301;61243;-25
2022/11/30 07:59:03;;;;;;;13.90;8.20;;;;;;;1.06;77.71;100145.38;102472;1299;61097;-25
2022/11/30 08:01:31;;;;;;;15.70;8.90;;;;;;;0.96;77.94;100144.77;102458;1297;75425;-26
2022/11/30 08:04:01;;;;;;;33.90;15.50;;;;;;;0.73;78.37;100145.13;102332;1299;74821;-25
2022/11/30 08:06:30;;;;;;;52.70;24.10;;;;;;;0.50;79.36;100142.90;102376;1302;74117;-25
2022/11/30 08:08:59;;;;;;;28.70;15.60;;;;;;;-0.09;81.61;100135.77;102144;1299;61572;-25
2022/11/30 08:11:29;;;;;;;48.50;22.20;;;;;;;0.37;81.09;100138.05;102305;1299;61822;-25
2022/11/30 08:13:57;;;;;;;32.20;14.80;;;;;;;0.80;79.12;100134.37;102081;1301;75172;-25
2022/11/30 08:16:26;;;;;;;21.10;10.20;;;;;;;0.87;78.03;100138.82;102334;1302;75695;-25
2022/11/30 08:18:55;;;;;;;24.50;11.60;;;;;;;0.48;78.69;100135.42;102220;1302;74217;-25
2022/11/30 08:21:22;;;;;;;18.00;9.50;;;;;;;0.10;80.37;100133.33;102229;1299;61200;-24
2022/11/30 08:23:54;;;;;;;14.00;7.90;;;;;;;0.26;80.82;100129.77;102373;1300;61794;-25
2022/11/30 08:26:30;;;;;;;17.50;7.60;;;;;;;0.33;80.32;100130.47;102184;1299;74701;-25
2022/11/30 08:28:59;;;;;;;29.00;14.10;;;;;;;0.28;80.78;100131.95;102317;1298;75128;-25
2022/11/30 08:31:33;;;;;;;12.60;6.20;;;;;;;0.03;81.52;100129.23;102201;1294;73210;-26
2022/11/30 08:34:03;;;;;;;8.80;5.60;;;;;;;0.32;80.66;100130.84;102136;1299;61233;-26
2022/11/30 08:36:31;;;;;;;9.00;5.50;;;;;;;0.73;79.36;100133.30;102348;1300;62104;-26
2022/11/30 08:39:03;;;;;;;35.00;16.80;;;;;;;0.64;79.07;100134.73;102414;1299;75454;-26
2022/11/30 08:41:33;;;;;;;24.30;13.10;;;;;;;0.47;80.28;100132.55;102222;1299;75729;-26
2022/11/30 08:44:01;;;;;;;26.00;11.90;;;;;;;-0.22;82.29;100134.66;102368;1292;73479;-27
2022/11/30 08:46:29;;;;;;;25.50;12.80;;;;;;;-0.40;83.38;100136.71;102247;1299;62554;-27
2022/11/30 08:49:17;;;;;;;14.30;7.30;;;;;;;-0.17;82.91;100138.84;102392;1299;61876;-27
2022/11/30 08:51:50;;;;;;;;;;;;;;;-0.34;82.91;100147.19;102403;1289;75446;-27
2022/11/30 08:54:41;;;;;;;13.40;7.90;;;;;;;0.58;80.34;100141.17;102391;1298;75797;-27
2022/11/30 08:57:08;;;;;;;10.50;5.80;;;;;;;1.05;78.07;100146.59;102403;1297;74200;-27
2022/11/30 08:59:36;;;;;;;7.70;4.80;;;;;;;1.17;77.21;100150.23;102352;1299;61634;-27
2022/11/30 09:02:04;;;;;;;5.80;3.50;;;;;;;1.05;76.86;100146.08;102398;1297;61790;-27
2022/11/30 09:04:33;;;;;;;10.90;6.70;;;;;;;0.85;76.90;100147.23;102409;1299;75154;-27
2022/11/30 09:07:01;;;;;;;10.80;5.50;;;;;;;0.54;77.85;100145.21;102400;1299;74276;-27
2022/11/30 09:09:29;;;;;;;12.90;7.70;;;;;;;0.31;79.15;100146.05;102366;1299;74143;-26
2022/11/30 09:11:57;;;;;;;10.30;6.00;;;;;;;0.25;79.45;100139.86;102397;1283;62706;-27
2022/11/30 09:14:26;;;;;;;9.10;5.60;;;;;;;0.53;78.57;100139.76;102421;1299;61890;-27
2022/11/30 09:16:58;;;;;;;10.10;6.40;;;;;;;1.30;76.41;100136.91;102407;1296;75476;-27
2022/11/30 09:19:28;;;;;;;6.40;4.80;;;;;;;1.60;74.72;100136.64;102379;1299;75683;-27
2022/11/30 09:21:58;;;;;;;11.00;5.70;;;;;;;1.63;74.28;100135.34;102254;1296;74459;-26
2022/11/30 09:24:26;;;;;;;12.70;6.90;;;;;;;1.20;73.57;100136.31;102123;1305;61175;-28
2022/11/30 09:26:57;;;;;;;13.20;7.70;;;;;;;0.89;74.73;100138.25;102391;1292;61809;-28
2022/11/30 09:29:25;;;;;;;11.70;6.10;;;;;;;0.64;76.19;100136.27;102497;1290;75515;-25
2022/11/30 09:31:53;;;;;;;8.20;5.50;;;;;;;0.71;75.73;100132.70;102356;1300;74144;-25
2022/11/30 09:34:22;;;;;;;8.10;5.60;;;;;;;0.77;75.94;100133.23;102356;1302;74198;-25
2022/11/30 09:36:51;;;;;;;11.50;7.30;;;;;;;1.28;75.06;100126.19;102443;1297;61837;-25
2022/11/30 09:39:19;;;;;;;8.40;4.50;;;;;;;1.90;72.55;100126.92;102407;1291;61865;-25
2022/11/30 09:41:46;;;;;;;7.60;4.70;;;;;;;2.01;71.19;100124.37;102406;1295;75201;-25
2022/11/30 09:44:35;;;;;;;10.00;5.90;;;;;;;1.93;71.29;100118.62;102392;1299;75673;-25
2022/11/30 09:47:17;;;;;;;12.80;6.50;;;;;;;1.83;71.89;100119.73;102374;1299;74255;-26
2022/11/30 09:49:46;;;;;;;10.70;6.70;;;;;;;1.75;72.21;100124.24;102385;1297;61345;-29
2022/11/30 09:52:29;;;;;;;20.20;10.00;;;;;;;1.63;72.88;100124.23;101987;1298;61101;-28
2022/11/30 09:54:56;;;;;;;41.80;18.30;;;;;;;0.49;75.86;100120.36;102413;1297;75668;-28
2022/11/30 09:57:29;;;;;;;19.60;10.50;;;;;;;0.40;77.87;100119.05;102223;1294;73867;-29
2022/11/30 09:59:58;;;;;;;19.00;10.60;;;;;;;0.27;78.04;100121.89;102189;1301;74197;-26
2022/11/30 10:02:28;;;;;;;24.10;10.70;;;;;;;0.04;79.32;100117.76;102253;1299;62530;-28
2022/11/30 10:04:57;;;;;;;34.70;18.00;;;;;;;0.36;79.72;100117.24;102236;1286;61124;-27
2022/11/30 10:07:52;;;;;;;28.30;15.90;;;;;;;0.42;78.63;100117.80;102068;1299;75626;-27
2022/11/30 10:10:51;;;;;;;14.80;8.70;;;;;;;0.49;76.86;100120.03;102226;1298;75775;-27
2022/11/30 10:13:38;;;;;;;17.30;10.30;;;;;;;0.39;77.32;100121.27;102236;1302;74080;-27
2022/11/30 10:16:30;;;;;;;16.20;8.20;;;;;;;0.72;77.06;100121.90;102227;1294;61140;-27
2022/11/30 10:19:05;;;;;;;30.30;15.20;;;;;;;0.55;76.68;100123.48;102343;1299;61833;-27
2022/11/30 10:21:39;;;;;;;38.90;19.50;;;;;;;0.23;77.82;100121.79;102186;1297;74990;-27
2022/11/30 10:24:10;;;;;;;18.20;8.70;;;;;;;-0.11;80.02;100122.69;102320;1292;75817;-27
2022/11/30 10:26:44;;;;;;;29.30;15.00;;;;;;;0.56;78.92;100123.45;102113;1302;72512;-27
2022/11/30 10:29:12;;;;;;;27.10;11.30;;;;;;;1.44;76.65;100125.92;102089;1299;61902;-27
2022/11/30 10:31:39;;;;;;;16.10;9.50;;;;;;;1.33;73.88;100124.00;102382;1292;61870;-27
2022/11/30 10:34:22;;;;;;;14.00;7.30;;;;;;;1.03;74.10;100120.98;101971;1299;75478;-27
2022/11/30 10:37:14;;;;;;;12.20;7.10;;;;;;;0.71;75.24;100118.33;101985;1302;74976;-27
2022/11/30 10:39:54;;;;;;;9.80;6.30;;;;;;;0.58;75.14;100117.95;102021;1300;73152;-27
2022/11/30 10:42:26;;;;;;;10.70;6.30;;;;;;;0.53;75.66;100111.73;102294;1292;60987;-27
2022/11/30 10:45:04;;;;;;;11.30;6.50;;;;;;;0.49;75.53;100109.61;102111;1294;62236;-27
2022/11/30 10:47:35;;;;;;;35.80;17.60;;;;;;;0.24;76.91;100106.58;102068;1301;74576;-27
2022/11/30 10:50:05;;;;;;;37.60;15.80;;;;;;;0.10;78.65;100110.80;102187;1298;75743;-27
2022/11/30 10:52:47;;;;;;;42.40;15.80;;;;;;;0.11;78.43;100111.63;102328;1299;73160;-27
2022/11/30 10:55:25;;;;;;;37.50;17.90;;;;;;;0.40;77.61;100116.30;102181;1294;61971;-27
2022/11/30 10:58:26;;;;;;;50.00;22.10;;;;;;;0.18;78.31;100117.30;102435;1299;61816;-28
2022/11/30 11:01:02;;;;;;;28.80;14.90;;;;;;;0.15;77.71;100116.67;102020;1298;75558;-27
2022/11/30 11:03:29;;;;;;;19.10;9.60;;;;;;;0.47;77.35;100112.73;102030;1297;74667;-27
2022/11/30 11:06:22;;;;;;;24.10;12.00;;;;;;;0.42;76.58;100110.10;102357;1299;74037;-26
2022/11/30 11:08:52;;;;;;;;;;;;;;;0.38;76.99;100112.77;102153;1297;61187;-27
2022/11/30 11:11:26;;;;;;;37.00;17.50;;;;;;;0.23;77.56;100109.66;102469;1299;61845;-27
2022/11/30 11:14:08;;;;;;;14.50;7.40;;;;;;;0.02;78.77;100110.80;102360;1299;75566;-26
2022/11/30 11:17:03;;;;;;;18.80;10.50;;;;;;;0.55;78.10;100109.30;102260;1301;74828;-28
2022/11/30 11:19:38;;;;;;;16.80;8.90;;;;;;;1.33;75.72;100108.61;102298;1299;74285;-27
2022/11/30 11:22:18;;;;;;;15.00;8.10;;;;;;;1.39;74.33;100112.89;102292;1297;61124;-27
2022/11/30 11:24:48;;;;;;;42.70;18.90;;;;;;;1.27;74.52;100113.39;102389;1302;61820;-26
2022/11/30 11:27:24;;;;;;;34.90;16.30;;;;;;;0.97;75.56;100114.30;102303;1294;75764;-26
2022/11/30 11:30:17;;;;;;;24.00;11.70;;;;;;;0.77;76.18;100114.95;102407;1302;75911;-26
2022/11/30 11:33:11;;;;;;;40.00;17.60;;;;;;;0.59;76.56;100113.48;102235;1298;74241;-26
2022/11/30 11:35:44;;;;;;;20.70;8.40;;;;;;;0.32;77.82;100117.34;102325;1299;61002;-27
2022/11/30 11:38:26;;;;;;;18.10;10.40;;;;;;;0.41;77.60;100120.54;102372;1298;61457;-25
2022/11/30 11:40:53;;;;;;;30.10;14.60;;;;;;;0.96;75.84;100117.73;102346;1297;74794;-25